Time;durP1;ratioP1;P1;durP2;ratioP2;P2;SDS_P1;SDS_P2;PMS_P1;PMS_P2;Temp;Humidity;BMP_temperature;BMP_pressure;BME280_temperature;BME280_humidity;BME280_pressure;Samples;Min_cycle;Max_cycle;Signal;HPM_P1;HPM_P2
2022/01/03 00:00:11;;;;;;;1.63;0.77;;;15.70;70.50;;;;;;10557420;28;20016;-56
2022/01/03 00:05:12;;;;;;;1.90;0.70;;;15.70;70.50;;;;;;10519995;28;20028;-56
2022/01/03 00:10:16;;;;;;;1.35;0.80;;;15.60;70.50;;;;;;10519356;28;20024;-56
2022/01/03 00:15:18;;;;;;;2.58;0.88;;;15.60;70.50;;;;;;10536068;28;20032;-56
2022/01/03 00:20:22;;;;;;;1.40;0.70;;;15.60;70.50;;;;;;10537335;28;20107;-56
2022/01/03 00:25:25;;;;;;;2.05;0.90;;;15.60;70.50;;;;;;10536613;28;20059;-55
2022/01/03 00:30:26;;;;;;;1.80;0.70;;;15.60;70.50;;;;;;10518989;28;20516;-56
2022/01/03 00:35:29;;;;;;;2.95;1.00;;;15.60;70.50;;;;;;10518468;28;20064;-56
2022/01/03 00:40:30;;;;;;;3.05;0.85;;;15.60;70.40;;;;;;10518529;28;20492;-56
2022/01/03 00:45:31;;;;;;;1.35;1.25;;;15.60;70.50;;;;;;10518816;28;20043;-55
2022/01/03 00:50:33;;;;;;;1.20;0.60;;;15.60;70.50;;;;;;10518258;28;20032;-56
2022/01/03 00:55:34;;;;;;;1.90;1.00;;;15.60;70.50;;;;;;10527682;28;20036;-56
2022/01/03 01:00:41;;;;;;;4.72;1.73;;;15.60;70.50;;;;;;10569127;28;20031;-55
2022/01/03 01:05:50;;;;;;;1.55;0.60;;;15.60;70.50;;;;;;10536358;28;20379;-55
2022/01/03 01:10:55;;;;;;;1.15;0.50;;;15.60;70.50;;;;;;10502029;28;20024;-55
2022/01/03 01:15:56;;;;;;;1.40;0.77;;;15.60;70.50;;;;;;10518570;28;20028;-56
2022/01/03 01:20:56;;;;;;;2.25;0.93;;;15.60;70.50;;;;;;10517692;28;20028;-56
2022/01/03 01:31:20;;;;;;;;;;;15.50;70.40;;;;;;10536686;28;20052;-55
2022/01/03 01:36:27;;;;;;;1.85;0.77;;;15.50;70.50;;;;;;10535354;28;19912;-56
2022/01/03 01:41:29;;;;;;;1.42;0.82;;;15.50;70.40;;;;;;10517506;28;20020;-57
2022/01/03 01:46:31;;;;;;;1.65;0.85;;;15.50;70.40;;;;;;10522874;28;20411;-56
2022/01/03 01:51:36;;;;;;;1.65;0.80;;;15.50;70.40;;;;;;10525242;28;20031;-56
2022/01/03 01:56:48;;;;;;;1.58;0.65;;;15.50;71.00;;;;;;10561417;28;20364;-55
2022/01/03 02:02:11;;;;;;;2.33;0.70;;;15.50;70.50;;;;;;10565406;28;20032;-55
2022/01/03 02:07:37;;;;;;;1.88;0.90;;;15.50;70.50;;;;;;10542441;28;20430;-56
2022/01/03 02:12:42;;;;;;;2.33;0.80;;;15.50;70.50;;;;;;10542305;28;20046;-56
2022/01/03 02:17:47;;;;;;;1.10;0.88;;;15.50;70.50;;;;;;10542657;28;20016;-55
2022/01/03 02:22:49;;;;;;;1.70;0.90;;;15.50;70.50;;;;;;10523805;28;20093;-56
2022/01/03 02:27:52;;;;;;;2.15;1.00;;;15.50;70.50;;;;;;10523541;28;20031;-55
2022/01/03 02:32:53;;;;;;;2.60;1.10;;;15.50;70.50;;;;;;10523401;28;20080;-56
2022/01/03 02:37:54;;;;;;;3.40;1.05;;;15.50;70.50;;;;;;10523386;28;20028;-56
2022/01/03 02:42:55;;;;;;;2.58;0.65;;;15.50;70.50;;;;;;10522867;28;20024;-55
2022/01/03 02:48:01;;;;;;;2.13;0.80;;;15.50;70.50;;;;;;10506060;28;20201;-56
2022/01/03 02:53:02;;;;;;;1.25;0.60;;;15.50;70.40;;;;;;10522875;28;20032;-56
2022/01/03 02:58:08;;;;;;;1.58;0.70;;;15.50;70.50;;;;;;10551581;28;20028;-55
2022/01/03 03:03:09;;;;;;;2.08;0.80;;;15.50;70.50;;;;;;10551753;28;20388;-56
2022/01/03 03:08:11;;;;;;;2.70;0.68;;;15.50;70.50;;;;;;10539979;28;20034;-55
2022/01/03 03:13:12;;;;;;;6.07;1.00;;;15.40;70.40;;;;;;10505143;28;20040;-54
2022/01/03 03:18:13;;;;;;;1.23;0.52;;;15.50;70.50;;;;;;10521731;28;20020;-54
2022/01/03 03:23:14;;;;;;;3.15;0.88;;;15.40;70.40;;;;;;10521361;28;20130;-55
2022/01/03 03:28:16;;;;;;;2.15;0.55;;;15.50;70.50;;;;;;10521268;28;20107;-54
2022/01/03 03:33:23;;;;;;;2.47;0.88;;;15.40;70.40;;;;;;10520769;28;20028;-54
2022/01/03 03:38:25;;;;;;;3.25;0.85;;;15.40;70.40;;;;;;10539003;28;20020;-55
2022/01/03 03:43:26;;;;;;;1.60;0.88;;;15.40;70.50;;;;;;10520944;28;20100;-55
2022/01/03 03:48:27;;;;;;;2.50;0.77;;;15.40;70.40;;;;;;10538364;28;20038;-55
2022/01/03 03:53:27;;;;;;;1.77;0.80;;;15.40;70.40;;;;;;10520337;28;20480;-56
2022/01/03 03:58:28;;;;;;;1.20;0.63;;;15.40;70.40;;;;;;10553864;28;20027;-56
2022/01/03 04:03:29;;;;;;;1.88;0.88;;;15.40;70.40;;;;;;10528531;28;20107;-55
2022/01/03 04:08:29;;;;;;;2.65;1.42;;;15.40;70.50;;;;;;10537377;28;20032;-56
2022/01/03 04:13:30;;;;;;;1.25;0.70;;;15.40;70.50;;;;;;10537357;28;20517;-55
2022/01/03 04:18:31;;;;;;;1.83;1.00;;;15.40;70.50;;;;;;10537419;28;20024;-55
2022/01/03 04:23:31;;;;;;;1.88;0.77;;;15.40;70.50;;;;;;10518882;28;20108;-55
2022/01/03 04:28:32;;;;;;;2.10;0.80;;;15.40;70.50;;;;;;10536967;28;20035;-56
2022/01/03 04:33:33;;;;;;;2.22;0.80;;;15.40;70.50;;;;;;10518710;28;20035;-55
2022/01/03 04:38:34;;;;;;;2.05;1.15;;;15.40;70.50;;;;;;10518902;28;20476;-56
2022/01/03 04:43:36;;;;;;;2.22;0.80;;;15.40;70.50;;;;;;10536623;28;20491;-56
2022/01/03 04:48:38;;;;;;;2.53;1.15;;;15.40;70.50;;;;;;10518426;28;20057;-54
2022/01/03 04:53:40;;;;;;;1.50;0.80;;;15.40;70.40;;;;;;10518147;28;20039;-55
2022/01/03 04:58:41;;;;;;;1.98;0.98;;;15.40;70.50;;;;;;10571936;28;20020;-56
2022/01/03 05:03:43;;;;;;;1.90;0.95;;;15.30;70.40;;;;;;10524831;28;20480;-55
2022/01/03 05:08:44;;;;;;;1.75;0.70;;;15.40;70.50;;;;;;10501260;28;20051;-56
2022/01/03 05:13:45;;;;;;;2.45;0.70;;;15.30;70.50;;;;;;10517643;28;20024;-56
2022/01/03 05:18:45;;;;;;;1.17;0.65;;;15.30;70.50;;;;;;10537039;28;20028;-56
2022/01/03 05:23:47;;;;;;;3.47;1.13;;;15.30;70.50;;;;;;10544045;28;20142;-55
2022/01/03 05:28:47;;;;;;;2.20;0.88;;;15.30;70.50;;;;;;10526530;28;20032;-55
2022/01/03 05:33:48;;;;;;;2.08;1.05;;;15.30;70.50;;;;;;10526108;28;20050;-56
2022/01/03 05:38:49;;;;;;;3.08;0.80;;;15.30;70.50;;;;;;10525767;28;20036;-55
2022/01/03 05:43:50;;;;;;;1.10;0.88;;;15.30;70.50;;;;;;10543507;28;20036;-56
2022/01/03 05:48:51;;;;;;;2.92;1.23;;;15.30;71.10;;;;;;10525314;28;20024;-55
2022/01/03 05:53:53;;;;;;;2.55;1.13;;;15.30;70.50;;;;;;10543126;28;20066;-56
2022/01/03 05:58:53;;;;;;;1.38;0.90;;;15.30;70.40;;;;;;10562065;28;20019;-55
2022/01/03 06:04:01;;;;;;;0.98;0.63;;;15.30;70.40;;;;;;10547827;28;20035;-56
2022/01/03 06:09:03;;;;;;;1.85;0.75;;;15.30;70.40;;;;;;10542625;28;20039;-55
2022/01/03 06:14:03;;;;;;;0.65;0.47;;;15.30;70.50;;;;;;10542313;28;20040;-56
2022/01/03 06:19:04;;;;;;;1.83;0.82;;;15.30;70.50;;;;;;10507252;28;20119;-56
2022/01/03 06:24:05;;;;;;;3.13;1.02;;;15.30;70.50;;;;;;10541888;28;20063;-55
2022/01/03 06:29:06;;;;;;;2.50;0.98;;;15.30;70.40;;;;;;10541886;28;20371;-55
2022/01/03 06:34:07;;;;;;;1.65;0.85;;;15.30;70.40;;;;;;10541531;28;20028;-56
2022/01/03 06:39:09;;;;;;;4.50;1.38;;;15.20;70.40;;;;;;10541330;28;20450;-56
2022/01/03 06:44:10;;;;;;;2.63;0.70;;;15.30;70.50;;;;;;10524021;28;20053;-56
2022/01/03 06:49:11;;;;;;;3.90;0.65;;;15.20;70.40;;;;;;10522918;28;20045;-55
2022/01/03 06:54:12;;;;;;;2.45;0.80;;;15.20;70.40;;;;;;10540668;28;20181;-56
2022/01/03 06:59:13;;;;;;;2.30;0.70;;;15.20;70.40;;;;;;10562531;28;20375;-56
2022/01/03 07:04:13;;;;;;;2.58;0.70;;;15.20;70.40;;;;;;10542851;28;20066;-56
2022/01/03 07:09:14;;;;;;;3.83;0.68;;;15.20;70.40;;;;;;10540126;28;20043;-55
2022/01/03 07:19:25;;;;;;;1.38;0.70;;;15.20;70.50;;;;;;10539990;28;20032;-57
2022/01/03 07:24:25;;;;;;;2.95;1.13;;;15.20;70.40;;;;;;10521206;28;20044;-55
2022/01/03 07:29:26;;;;;;;1.88;0.88;;;15.20;70.40;;;;;;10521371;28;20399;-53
2022/01/03 07:34:27;;;;;;;1.08;0.70;;;15.20;70.40;;;;;;10504149;28;20036;-55
2022/01/03 07:39:30;;;;;;;2.97;0.95;;;15.20;70.40;;;;;;10539281;28;20514;-56
2022/01/03 07:44:31;;;;;;;2.30;0.82;;;15.20;70.50;;;;;;10538079;28;20115;-55
2022/01/03 07:49:32;;;;;;;2.17;0.80;;;15.20;70.50;;;;;;10538657;28;20373;-56
2022/01/03 07:54:32;;;;;;;2.90;1.05;;;15.20;70.40;;;;;;10538794;28;20381;-55
2022/01/03 07:59:33;;;;;;;4.35;0.95;;;15.20;70.50;;;;;;10543263;28;20134;-55
2022/01/03 08:04:35;;;;;;;1.60;0.80;;;15.20;70.40;;;;;;10533717;28;20035;-56
2022/01/03 08:09:35;;;;;;;2.45;0.95;;;15.20;70.50;;;;;;10517946;28;20081;-57
2022/01/03 08:14:36;;;;;;;3.47;0.82;;;15.20;70.40;;;;;;10519841;28;20150;-53
2022/01/03 08:19:37;;;;;;;4.40;1.15;;;15.20;70.40;;;;;;10502346;28;20111;-55
2022/01/03 08:24:38;;;;;;;3.00;0.70;;;15.10;70.40;;;;;;10536852;28;20036;-55
2022/01/03 08:29:38;;;;;;;3.22;0.85;;;15.10;70.40;;;;;;10518834;28;20027;-55
2022/01/03 08:34:39;;;;;;;2.38;0.88;;;15.10;70.40;;;;;;10518639;28;20032;-55
2022/01/03 08:39:40;;;;;;;3.85;1.10;;;15.10;70.40;;;;;;10518547;28;20026;-55
2022/01/03 08:44:41;;;;;;;2.00;0.73;;;15.10;70.40;;;;;;10518515;28;20118;-55
2022/01/03 08:49:41;;;;;;;1.45;0.75;;;15.10;70.40;;;;;;10518377;28;20105;-56
2022/01/03 08:54:42;;;;;;;1.65;0.60;;;15.10;70.40;;;;;;10519163;28;20032;-56
2022/01/03 08:59:43;;;;;;;2.42;0.70;;;15.10;70.40;;;;;;10576709;28;20612;-55
2022/01/03 09:04:45;;;;;;;2.15;0.68;;;15.10;70.50;;;;;;10518333;28;20032;-56
2022/01/03 09:09:46;;;;;;;4.50;1.00;;;15.10;70.40;;;;;;10518160;28;20047;-56
2022/01/03 09:14:47;;;;;;;1.77;0.60;;;15.10;70.40;;;;;;10500732;28;20043;-56
2022/01/03 09:19:47;;;;;;;1.30;0.70;;;15.10;70.40;;;;;;10535753;28;20107;-56
2022/01/03 09:30:03;;;;;;;2.72;1.10;;;15.10;70.40;;;;;;10535689;28;20028;-55
2022/01/03 09:35:06;;;;;;;3.53;1.02;;;15.10;70.40;;;;;;10500804;28;20028;-55
2022/01/03 09:40:08;;;;;;;2.17;0.90;;;15.10;70.50;;;;;;10500785;28;20123;-55
2022/01/03 09:45:15;;;;;;;1.38;0.57;;;15.10;70.40;;;;;;10535146;28;20115;-55
2022/01/03 09:50:21;;;;;;;1.60;0.60;;;15.10;70.50;;;;;;10501284;28;20047;-54
2022/01/03 09:55:22;;;;;;;1.23;0.82;;;15.10;70.50;;;;;;10524395;28;20028;-56
2022/01/03 10:00:23;;;;;;;1.98;0.65;;;15.10;70.50;;;;;;10551565;28;20076;-54
2022/01/03 10:05:24;;;;;;;1.77;0.98;;;15.10;70.40;;;;;;10537574;28;20385;-55
2022/01/03 10:10:27;;;;;;;2.70;0.80;;;15.10;70.50;;;;;;10542515;28;20036;-56
2022/01/03 10:15:29;;;;;;;3.13;0.70;;;15.10;70.40;;;;;;10524533;28;20032;-56
2022/01/03 10:20:30;;;;;;;2.97;0.88;;;15.10;70.40;;;;;;10524137;28;20012;-56
2022/01/03 10:25:32;;;;;;;4.05;0.98;;;15.10;70.50;;;;;;10460488;28;20044;-55
2022/01/03 10:30:45;;;;;;;2.33;0.80;;;15.10;70.40;;;;;;10440558;28;20025;-55
2022/01/03 10:35:56;;;;;;;1.88;0.80;;;15.10;70.40;;;;;;10456952;28;20037;-56
2022/01/03 10:41:11;;;;;;;2.15;0.60;;;15.10;70.60;;;;;;10456858;28;20408;-54
2022/01/03 10:46:46;;;;;;;2.45;1.10;;;15.10;70.40;;;;;;10456446;28;20032;-56
2022/01/03 10:51:47;;;;;;;2.17;1.10;;;15.10;70.70;;;;;;10456582;28;20447;-55
2022/01/03 10:56:50;;;;;;;2.20;0.63;;;15.20;71.50;;;;;;10458939;28;20032;-55
2022/01/03 11:01:56;;;;;;;2.63;0.90;;;15.20;70.70;;;;;;10478009;28;20044;-54
2022/01/03 11:12:36;;;;;;;4.35;0.90;;;15.30;70.70;;;;;;10457106;28;20037;-53
2022/01/03 11:17:37;;;;;;;0.90;0.50;;;15.30;71.00;;;;;;10454271;28;20033;-54
2022/01/03 11:22:39;;;;;;;2.30;0.80;;;15.30;70.40;;;;;;10485026;28;20257;-56
2022/01/03 11:27:40;;;;;;;3.47;1.00;;;15.30;70.50;;;;;;10521353;28;20432;-56
2022/01/03 11:32:48;;;;;;;3.38;1.10;;;15.30;70.70;;;;;;10521037;28;20059;-56
2022/01/03 11:37:51;;;;;;;1.77;0.73;;;15.30;70.70;;;;;;10520937;28;20093;-55
2022/01/03 11:42:53;;;;;;;3.00;1.65;;;15.30;70.60;;;;;;10520463;28;20081;-55
2022/01/03 11:47:54;;;;;;;2.83;1.00;;;15.40;70.40;;;;;;10521082;28;20031;-54
2022/01/03 11:52:55;;;;;;;3.72;1.67;;;15.30;70.50;;;;;;10520254;28;20039;-56
2022/01/03 12:08:38;;;;;;;2.55;0.70;;;15.30;70.70;;;;;;10522519;28;20032;-55
2022/01/03 12:13:50;;;;;;;2.05;0.70;;;15.20;70.70;;;;;;10537558;28;20031;-54
2022/01/03 12:19:00;;;;;;;2.17;0.90;;;15.30;70.60;;;;;;10537387;28;20016;-56
2022/01/03 12:24:01;;;;;;;2.75;1.20;;;15.30;70.60;;;;;;10519036;28;20101;-54
2022/01/03 12:29:07;;;;;;;1.85;0.98;;;15.20;70.70;;;;;;10502013;28;20467;-56
2022/01/03 12:34:18;;;;;;;3.40;1.00;;;15.20;70.50;;;;;;10518771;28;20031;-56
2022/01/03 12:39:18;;;;;;;2.25;0.90;;;15.20;70.60;;;;;;10501750;28;20073;-55
2022/01/03 12:44:46;;;;;;;5.32;1.30;;;15.20;70.60;;;;;;10518767;28;20027;-55
2022/01/03 12:50:06;;;;;;;1.52;0.63;;;15.20;70.60;;;;;;10536291;28;20102;-56
2022/01/03 12:55:07;;;;;;;4.65;1.30;;;15.20;70.60;;;;;;10523468;28;20115;-55
2022/01/03 13:00:28;;;;;;;3.05;0.90;;;15.20;71.20;;;;;;10538107;28;20479;-56
2022/01/03 13:05:29;;;;;;;2.17;0.65;;;15.10;70.60;;;;;;10517786;28;20036;-55
2022/01/03 13:10:30;;;;;;;2.15;0.85;;;15.20;70.60;;;;;;10501181;28;20368;-56
2022/01/03 13:15:30;;;;;;;2.03;0.90;;;15.10;70.60;;;;;;10517986;28;20388;-55
2022/01/03 13:20:31;;;;;;;2.30;0.90;;;15.20;70.70;;;;;;10535735;28;20036;-56
2022/01/03 13:25:32;;;;;;;2.60;0.70;;;15.10;70.60;;;;;;10517238;28;20052;-56
2022/01/03 13:30:33;;;;;;;0.95;0.70;;;15.10;70.60;;;;;;10500859;28;20115;-56
2022/01/03 13:35:33;;;;;;;2.90;1.25;;;15.10;70.60;;;;;;10517811;28;20111;-57
2022/01/03 13:40:34;;;;;;;3.30;0.80;;;15.10;70.70;;;;;;10519845;28;20484;-54
2022/01/03 13:50:51;;;;;;;1.65;0.80;;;15.10;70.60;;;;;;10527494;28;20129;-55
2022/01/03 13:55:55;;;;;;;1.77;0.75;;;15.10;70.60;;;;;;10520153;28;20031;-56
2022/01/03 14:00:58;;;;;;;3.00;1.45;;;15.10;70.60;;;;;;10555697;28;20074;-56
2022/01/03 14:06:18;;;;;;;2.72;1.15;;;15.10;70.70;;;;;;10524785;28;20048;-56
2022/01/03 14:11:22;;;;;;;1.70;0.87;;;15.00;70.60;;;;;;10524667;28;20031;-54
2022/01/03 14:16:27;;;;;;;2.08;0.75;;;15.00;70.60;;;;;;10507445;28;20107;-56
2022/01/03 14:21:33;;;;;;;2.72;0.93;;;15.00;70.60;;;;;;10542088;28;20096;-56
2022/01/03 14:26:35;;;;;;;2.50;1.20;;;15.10;70.60;;;;;;10542437;28;20377;-56
2022/01/03 14:31:56;;;;;;;2.22;0.80;;;15.10;70.70;;;;;;10523943;28;20062;-55
2022/01/03 14:36:58;;;;;;;2.33;0.80;;;15.00;70.60;;;;;;10542384;28;20373;-55
2022/01/03 14:42:08;;;;;;;2.38;0.75;;;15.00;70.60;;;;;;10523191;28;20025;-55
2022/01/03 14:47:12;;;;;;;2.03;0.80;;;15.00;70.60;;;;;;10541852;28;20055;-56
2022/01/03 14:52:12;;;;;;;1.85;0.90;;;15.00;70.60;;;;;;10505819;28;20035;-55
2022/01/03 14:57:25;;;;;;;1.92;1.02;;;15.00;70.60;;;;;;10563865;28;20476;-55
2022/01/03 15:02:28;;;;;;;2.63;1.00;;;15.00;70.60;;;;;;10540570;28;20360;-54
2022/01/03 15:07:29;;;;;;;1.67;0.80;;;15.00;70.60;;;;;;10505818;28;20552;-55
2022/01/03 15:12:30;;;;;;;2.00;0.75;;;15.00;70.60;;;;;;10521868;28;20032;-55
2022/01/03 15:17:31;;;;;;;1.08;0.70;;;15.00;70.60;;;;;;10521519;28;20074;-56
2022/01/03 15:22:32;;;;;;;2.15;1.23;;;15.00;70.60;;;;;;10539880;28;20036;-56
2022/01/03 15:27:33;;;;;;;1.95;0.60;;;15.00;70.60;;;;;;10521321;28;20032;-55
2022/01/03 15:32:34;;;;;;;1.42;0.60;;;15.00;70.60;;;;;;10521325;28;20032;-56
2022/01/03 15:37:35;;;;;;;1.60;0.70;;;15.00;70.60;;;;;;10504246;28;20100;-55
2022/01/03 15:42:35;;;;;;;1.10;0.57;;;15.00;70.70;;;;;;10503956;28;20441;-55
2022/01/03 15:47:36;;;;;;;1.80;0.82;;;14.90;70.50;;;;;;10538700;28;20038;-55
2022/01/03 15:52:37;;;;;;;1.25;0.80;;;15.00;70.60;;;;;;10538491;28;20050;-56
2022/01/03 15:57:38;;;;;;;3.22;0.65;;;15.00;70.60;;;;;;10564944;28;20034;-55
2022/01/03 16:02:39;;;;;;;1.40;0.60;;;15.00;70.60;;;;;;10535377;28;20024;-56
2022/01/03 16:07:40;;;;;;;1.35;0.73;;;14.90;70.50;;;;;;10519669;28;20032;-54
2022/01/03 16:12:42;;;;;;;1.20;0.63;;;14.90;70.50;;;;;;10537796;28;20439;-56
2022/01/03 16:17:42;;;;;;;2.28;1.00;;;15.00;70.60;;;;;;10519366;28;20036;-55
2022/01/03 16:22:43;;;;;;;1.52;0.50;;;14.90;70.50;;;;;;10537168;28;20485;-55
2022/01/03 16:27:46;;;;;;;4.32;1.02;;;14.90;70.60;;;;;;10518168;28;20020;-56
2022/01/03 16:32:47;;;;;;;1.58;0.65;;;14.90;70.60;;;;;;10536691;28;20103;-55
2022/01/03 16:37:48;;;;;;;1.42;0.70;;;14.90;70.60;;;;;;10518682;28;20024;-55
2022/01/03 16:42:49;;;;;;;0.98;0.60;;;14.90;70.60;;;;;;10518720;28;20535;-55
2022/01/03 16:47:49;;;;;;;3.90;1.05;;;14.90;70.50;;;;;;10536538;28;20036;-56
2022/01/03 16:52:50;;;;;;;1.42;0.50;;;14.90;70.50;;;;;;10518782;28;20123;-56
2022/01/03 16:57:51;;;;;;;1.38;0.57;;;14.90;70.50;;;;;;10564733;28;20119;-56
2022/01/03 17:02:53;;;;;;;2.15;0.77;;;14.90;70.50;;;;;;10532661;28;20024;-56
2022/01/03 17:07:53;;;;;;;1.17;0.55;;;14.90;70.60;;;;;;10536013;28;20016;-56
2022/01/03 17:12:58;;;;;;;0.68;0.38;;;14.90;70.50;;;;;;10518537;28;20031;-56
2022/01/03 17:18:00;;;;;;;1.63;0.80;;;14.90;70.50;;;;;;10525850;28;20135;-55
2022/01/03 17:23:01;;;;;;;0.93;0.60;;;14.80;70.50;;;;;;10544309;28;20036;-55
2022/01/03 17:28:01;;;;;;;1.60;0.60;;;14.90;70.50;;;;;;10526284;28;20032;-55
2022/01/03 17:33:03;;;;;;;1.27;0.70;;;14.90;70.60;;;;;;10525841;28;20031;-55
2022/01/03 17:38:04;;;;;;;2.97;1.10;;;14.90;70.60;;;;;;10525934;28;20051;-56
2022/01/03 17:43:05;;;;;;;0.85;0.45;;;14.80;70.50;;;;;;10525733;28;20107;-56
2022/01/03 17:48:06;;;;;;;0.85;0.50;;;14.80;70.50;;;;;;10526151;28;20111;-53
2022/01/03 17:53:08;;;;;;;2.60;1.05;;;14.80;70.50;;;;;;10543210;28;20027;-55
2022/01/03 17:58:10;;;;;;;1.50;0.88;;;14.80;70.50;;;;;;10556417;28;20452;-56
2022/01/03 18:03:11;;;;;;;1.83;0.73;;;14.80;70.40;;;;;;10536068;28;20062;-55
2022/01/03 18:08:11;;;;;;;1.05;0.63;;;14.80;70.50;;;;;;10524547;28;20031;-55
2022/01/03 18:13:12;;;;;;;2.47;0.70;;;14.80;70.50;;;;;;10524494;28;20498;-55
2022/01/03 18:18:13;;;;;;;1.15;0.60;;;14.80;70.50;;;;;;10524672;28;20024;-56
2022/01/03 18:23:14;;;;;;;2.35;0.93;;;14.80;70.50;;;;;;10523858;28;20044;-54
2022/01/03 18:28:14;;;;;;;1.42;0.50;;;14.80;70.50;;;;;;10541900;28;20429;-55
2022/01/03 18:33:17;;;;;;;1.08;0.55;;;14.80;70.50;;;;;;10506798;28;20024;-55
2022/01/03 18:38:17;;;;;;;1.08;0.60;;;14.80;70.50;;;;;;10541512;28;20032;-56
2022/01/03 18:43:18;;;;;;;1.65;0.70;;;14.80;70.50;;;;;;10523374;28;20036;-54
2022/01/03 18:48:19;;;;;;;0.77;0.70;;;14.80;70.50;;;;;;10523106;28;20032;-54
2022/01/03 18:53:19;;;;;;;1.45;0.60;;;14.80;70.50;;;;;;10522479;28;20476;-55
2022/01/03 18:58:20;;;;;;;1.92;0.82;;;14.80;70.50;;;;;;10555209;28;20023;-54
2022/01/03 19:03:21;;;;;;;1.20;0.55;;;14.80;70.40;;;;;;10532866;28;20055;-55
2022/01/03 19:08:22;;;;;;;0.82;0.50;;;14.80;70.50;;;;;;10505505;28;20031;-53
2022/01/03 19:13:22;;;;;;;1.13;0.50;;;14.80;70.50;;;;;;10540067;28;20024;-55
2022/01/03 19:18:23;;;;;;;1.88;0.70;;;14.80;70.50;;;;;;10521971;28;20309;-55
2022/01/03 19:23:24;;;;;;;1.90;0.70;;;14.80;70.50;;;;;;10521387;28;20047;-53
2022/01/03 19:28:25;;;;;;;0.90;0.50;;;14.80;70.50;;;;;;10521638;28;20023;-55
2022/01/03 19:38:33;;;;;;;1.33;0.70;;;14.70;70.50;;;;;;10538467;28;20476;-56
2022/01/03 19:43:33;;;;;;;1.15;0.68;;;14.70;70.50;;;;;;10538855;28;20107;-55
2022/01/03 19:48:35;;;;;;;0.80;0.45;;;14.70;70.40;;;;;;10520634;28;20809;-56
2022/01/03 19:53:36;;;;;;;1.25;0.52;;;14.70;70.50;;;;;;10503827;28;20090;-55
2022/01/03 19:58:37;;;;;;;1.17;0.50;;;14.70;70.50;;;;;;10573277;28;20028;-55
2022/01/03 20:03:37;;;;;;;0.82;0.43;;;14.70;70.50;;;;;;10527800;28;20027;-55
2022/01/03 20:08:38;;;;;;;1.30;0.70;;;14.70;70.50;;;;;;10537900;28;20104;-55
2022/01/03 20:13:45;;;;;;;1.13;0.47;;;14.70;70.40;;;;;;10537803;28;20365;-56
2022/01/03 20:18:46;;;;;;;1.40;0.60;;;14.70;70.50;;;;;;10520465;28;20027;-54
2022/01/03 20:23:47;;;;;;;0.50;0.47;;;14.70;70.50;;;;;;10537117;28;20462;-55
2022/01/03 20:28:49;;;;;;;0.98;0.60;;;14.70;70.50;;;;;;10502837;28;20058;-56
2022/01/03 20:33:50;;;;;;;0.50;0.45;;;14.70;70.50;;;;;;10519440;28;20478;-54
2022/01/03 20:38:50;;;;;;;0.93;0.52;;;14.70;70.50;;;;;;10536843;28;20027;-54
2022/01/03 20:43:51;;;;;;;2.00;0.50;;;14.70;70.50;;;;;;10518659;28;20028;-55
2022/01/03 20:48:52;;;;;;;0.63;0.43;;;14.70;70.50;;;;;;10518435;28;20036;-55
2022/01/03 20:53:54;;;;;;;0.88;0.77;;;14.70;70.50;;;;;;10536362;28;20039;-55
2022/01/03 20:58:54;;;;;;;1.67;0.80;;;14.70;70.50;;;;;;10538621;28;20501;-54
2022/01/03 21:03:55;;;;;;;1.25;0.50;;;14.60;70.50;;;;;;10541428;28;20126;-55
2022/01/03 21:08:57;;;;;;;0.98;0.60;;;14.70;70.50;;;;;;10518357;28;20381;-54
2022/01/03 21:13:57;;;;;;;0.68;0.52;;;14.70;70.50;;;;;;10535734;28;20039;-55
2022/01/03 21:18:58;;;;;;;0.70;0.47;;;14.70;70.40;;;;;;10518018;28;20039;-53
2022/01/03 21:23:59;;;;;;;1.63;0.60;;;14.70;70.50;;;;;;10535587;28;20052;-55
2022/01/03 21:28:59;;;;;;;1.27;0.65;;;14.70;70.50;;;;;;10535570;28;20438;-54
2022/01/03 21:34:00;;;;;;;0.90;0.63;;;14.70;70.50;;;;;;10535343;28;20032;-55
2022/01/03 21:39:01;;;;;;;1.08;0.63;;;14.70;70.40;;;;;;10517548;28;20017;-55
2022/01/03 21:44:02;;;;;;;1.33;0.77;;;14.70;70.50;;;;;;10517274;28;20123;-55
2022/01/03 21:49:02;;;;;;;0.93;0.52;;;14.60;70.40;;;;;;10517405;28;20020;-55
2022/01/03 21:54:03;;;;;;;1.48;0.65;;;14.60;70.50;;;;;;10535130;28;20468;-56
2022/01/03 21:59:04;;;;;;;2.28;0.52;;;14.60;70.40;;;;;;10573686;28;20019;-56
2022/01/03 22:04:06;;;;;;;1.35;0.60;;;14.60;70.40;;;;;;10527824;28;20478;-56
2022/01/03 22:09:06;;;;;;;1.35;0.63;;;14.60;71.00;;;;;;10524809;28;20016;-55
2022/01/03 22:14:07;;;;;;;1.30;0.68;;;14.60;70.40;;;;;;10507632;28;20023;-55
2022/01/03 22:19:08;;;;;;;1.13;0.73;;;14.60;70.40;;;;;;10507527;28;20024;-55
2022/01/03 22:24:08;;;;;;;0.82;0.57;;;14.60;70.40;;;;;;10524227;28;20147;-54
2022/01/03 22:29:09;;;;;;;0.95;0.50;;;14.60;70.40;;;;;;10523557;28;20556;-54
2022/01/03 22:34:10;;;;;;;1.45;0.68;;;14.60;70.40;;;;;;10523695;28;20050;-55
2022/01/03 22:39:11;;;;;;;0.93;0.60;;;14.60;70.40;;;;;;10541587;28;20024;-55
2022/01/03 22:44:11;;;;;;;0.57;0.50;;;14.60;70.40;;;;;;10541402;28;20142;-56
2022/01/03 22:49:12;;;;;;;1.10;0.50;;;14.60;70.50;;;;;;10523190;28;20365;-55
2022/01/03 22:54:13;;;;;;;1.42;0.65;;;14.60;70.50;;;;;;10522764;28;20482;-55
2022/01/03 22:59:16;;;;;;;1.40;0.80;;;14.60;70.50;;;;;;10563301;28;20034;-55
2022/01/03 23:04:17;;;;;;;1.13;0.70;;;14.60;70.50;;;;;;10525132;28;20028;-54
2022/01/03 23:09:17;;;;;;;2.05;0.70;;;14.60;70.50;;;;;;10522370;28;20493;-55
2022/01/03 23:14:18;;;;;;;0.63;0.63;;;14.60;70.50;;;;;;10521180;28;20396;-56
2022/01/03 23:19:19;;;;;;;1.05;0.50;;;14.50;70.40;;;;;;10505604;28;20020;-55
2022/01/03 23:24:20;;;;;;;0.93;0.50;;;14.60;70.50;;;;;;10521553;28;20515;-54
2022/01/03 23:29:20;;;;;;;1.60;0.80;;;14.60;70.50;;;;;;10521510;28;20027;-55
2022/01/03 23:34:21;;;;;;;1.38;0.77;;;14.60;70.40;;;;;;10521147;28;20043;-56
2022/01/03 23:39:22;;;;;;;0.80;0.50;;;14.60;70.50;;;;;;10539706;28;20031;-56
2022/01/03 23:44:23;;;;;;;1.17;0.60;;;14.60;70.50;;;;;;10521226;28;20032;-56
2022/01/03 23:49:23;;;;;;;1.48;0.70;;;14.50;70.40;;;;;;10520765;28;20162;-56
2022/01/03 23:54:25;;;;;;;0.68;0.52;;;14.50;70.40;;;;;;10520257;28;20447;-54
2022/01/03 23:59:26;;;;;;;1.05;0.70;;;14.50;70.40;;;;;;10580046;28;20073;-55
